Overseas Milos — V7WR8 — position and weather

sailwx.info

Track history (hours):
 
Tides and Currents Weather Stations Pressure Air Temp Water Temp Dewpoint Dewpoint Depression Visibility Wind Speed Wind Dir Waves Ship Positions

Overseas Milos

Last reported at 2016-Jun-24 08:17 UTC. Time now 2016-Jun-27 07:52 UTC.
Position N 39°05' W 075°11'.

Length 183 m; draft 10 m.

Type: Tanker. MMSI: 538004376.

Date/timePositionNaut miles runAvg speedWind from/ knotsBaromVisibWave heightAir tempDewpointWater temp
2016-Jun-24 08:17N 39°05' W 075°11'1013.2
2016-Jun-24 07:33N 39°13' W 075°17'30 9.9
2016-Jun-24 04:33N 39°40' W 075°32'9 9.4
2016-Jun-24 03:33N 39°48' W 075°25'10 9.9
2016-Jun-24 02:33N 39°52' W 075°13'3 2.6
2016-Jun-24 01:32N 39°53' W 075°10'0 0.0
2016-Jun-24 00:32N 39°53' W 075°10'0 0.0
2016-Jun-23 23:32N 39°53' W 075°10'0 0.0
2016-Jun-23 22:32N 39°53' W 075°10'0 0.0
2016-Jun-23 21:32N 39°53' W 075°10'0 0.0
2016-Jun-23 20:26N 39°53' W 075°10'0 0.0
2016-Jun-23 19:32N 39°53' W 075°10'0 0.0
2016-Jun-23 18:32N 39°53' W 075°10'0 0.0
2016-Jun-23 17:32N 39°53' W 075°10'0 0.0
2016-Jun-23 16:26N 39°53' W 075°10'0 0.0
2016-Jun-23 15:32N 39°53' W 075°10'0 0.0
2016-Jun-23 14:32N 39°53' W 075°10'0 0.0
2016-Jun-23 13:32N 39°53' W 075°10'0 0.0
2016-Jun-23 12:32N 39°53' W 075°10'0 0.0
2016-Jun-23 11:32N 39°53' W 075°10'0 0.0
2016-Jun-23 10:32N 39°53' W 075°10'0 0.0
2016-Jun-23 09:32N 39°53' W 075°10'0 0.0
2016-Jun-23 08:32N 39°53' W 075°10'0 0.0
2016-Jun-23 07:33N 39°53' W 075°10'0 0.0
2016-Jun-23 05:32N 39°53' W 075°10'0 0.0
2016-Jun-23 04:32N 39°53' W 075°10'0 0.0
2016-Jun-23 03:29N 39°53' W 075°10'0 0.0
2016-Jun-23 02:32N 39°53' W 075°10'0 0.0
2016-Jun-23 01:32N 39°53' W 075°10'0 0.0
2016-Jun-23 00:32N 39°53' W 075°10'0 0.0
2016-Jun-22 23:32N 39°53' W 075°10'0 0.0
2016-Jun-22 22:29N 39°53' W 075°10'0 0.0
2016-Jun-22 21:32N 39°53' W 075°10'0 0.0
2016-Jun-22 20:32N 39°53' W 075°10'0 0.0
2016-Jun-22 19:32N 39°53' W 075°10'0 0.0
2016-Jun-22 18:32N 39°53' W 075°10'0 0.0
2016-Jun-22 17:32N 39°53' W 075°10'0 0.0
2016-Jun-22 16:32N 39°53' W 075°10'1 1.2
2016-Jun-22 15:34N 39°53' W 075°11'9 8.6
2016-Jun-22 14:34N 39°50' W 075°22'1110.6
2016-Jun-22 13:34N 39°42' W 075°31'1110.6
2016-Jun-22 12:34N 39°32' W 075°33'1110.8
2016-Jun-22 11:33N 39°22' W 075°27'1211.7
2016-Jun-22 10:34N 39°13' W 075°17'1212.3
2016-Jun-22 09:34N 39°02' W 075°10'1212.4
2016-Jun-22 08:33N 38°51' W 075°04'9 8.9
2016-Jun-22 07:30N 38°44' W 074°56'18 0.7
2016-Jun-21 07:30N 38°32' W 074°38'0 0.0
2016-Jun-21 06:24N 38°32' W 074°38'86 7.0
2016-Jun-20 18:11N 37°46' W 073°06'59 1.3
2016-Jun-18 20:33N 38°40' W 072°33'1 1.1
2016-Jun-18 19:32N 38°40' W 072°31'1 0.6
2016-Jun-18 18:33N 38°40' W 072°31'1 1.2
2016-Jun-18 17:33N 38°40' W 072°29'1 1.1
2016-Jun-18 16:33N 38°39' W 072°28'1 1.2
2016-Jun-18 15:33N 38°38' W 072°27'1 1.3
2016-Jun-18 14:33N 38°38' W 072°25'1 1.3
2016-Jun-18 13:33N 38°37' W 072°24'1 1.3
2016-Jun-18 12:33N 38°37' W 072°22'1 1.4
2016-Jun-18 11:33N 38°36' W 072°20'6 1.4
2016-Jun-18 07:30N 38°33' W 072°14'2 1.8
2016-Jun-18 06:33N 38°32' W 072°13'2 1.9
2016-Jun-18 05:33N 38°31' W 072°11'64 3.0
2016-Jun-17 08:26N 39°28' W 072°48'1111.8
2016-Jun-17 07:29N 39°37' W 072°57'1311.9
2016-Jun-17 06:26N 39°46' W 073°08'1011.4
2016-Jun-17 05:33N 39°55' W 073°14'1212.1
2016-Jun-17 04:33N 40°05' W 073°24'1212.3
2016-Jun-17 03:33N 40°14' W 073°34'1412.4
2016-Jun-17 02:26N 40°24' W 073°46'1011.9
2016-Jun-17 01:33N 40°30' W 073°57'9 9.2
2016-Jun-17 00:33N 40°38' W 074°03'0 0.0
2016-Jun-16 23:32N 40°38' W 074°03'0 0.0
2016-Jun-16 22:32N 40°38' W 074°03'0 0.1
2016-Jun-16 21:32N 40°38' W 074°03'0 0.0
2016-Jun-16 20:32N 40°38' W 074°03'0 0.0
2016-Jun-16 19:32N 40°38' W 074°03'0 0.2
2016-Jun-16 18:32N 40°38' W 074°03'4 3.8
2016-Jun-16 17:33N 40°35' W 074°02'10 9.6
2016-Jun-16 16:33N 40°28' W 073°53'1110.6
2016-Jun-16 15:33N 40°30' W 074°07'0 0.0
2016-Jun-14 19:33N 40°29' W 074°07'8 8.0
2016-Jun-14 18:34N 40°27' W 073°57'4 3.6
2016-Jun-14 17:33N 40°31' W 073°59'6 5.6
2016-Jun-14 16:33N 40°36' W 074°02'0 0.0
2016-Jun-14 15:30N 40°36' W 074°02'0 0.0
2016-Jun-14 14:33N 40°36' W 074°02'0 0.0
2016-Jun-14 13:30N 40°36' W 074°02'0 0.0
2016-Jun-14 12:30N 40°36' W 074°02'0 0.0
2016-Jun-14 11:33N 40°36' W 074°02'0 0.0
2016-Jun-14 10:33N 40°36' W 074°02'0 0.1
2016-Jun-14 09:33N 40°36' W 074°02'0 0.2
2016-Jun-14 08:33N 40°36' W 074°02'  
Track history (hours):
 
Tides and Currents Weather Stations Pressure Air Temp Water Temp Dewpoint Dewpoint Depression Visibility Wind Speed Wind Dir Waves Ship Positions

Overseas Milos

Last reported at 2016-Jun-24 08:17 UTC. Time now 2016-Jun-27 07:52 UTC.
Position N 39°05' W 075°11'.

Length 183 m; draft 10 m.

Type: Tanker. MMSI: 538004376.

Date/timePositionNaut miles runAvg speedWind from/ knotsBaromVisibWave heightAir tempDewpointWater temp
2016-Jun-24 08:17N 39°05' W 075°11'1013.2
2016-Jun-24 07:33N 39°13' W 075°17'30 9.9
2016-Jun-24 04:33N 39°40' W 075°32'9 9.4
2016-Jun-24 03:33N 39°48' W 075°25'10 9.9
2016-Jun-24 02:33N 39°52' W 075°13'3 2.6
2016-Jun-24 01:32N 39°53' W 075°10'0 0.0
2016-Jun-24 00:32N 39°53' W 075°10'0 0.0
2016-Jun-23 23:32N 39°53' W 075°10'0 0.0
2016-Jun-23 22:32N 39°53' W 075°10'0 0.0
2016-Jun-23 21:32N 39°53' W 075°10'0 0.0
2016-Jun-23 20:26N 39°53' W 075°10'0 0.0
2016-Jun-23 19:32N 39°53' W 075°10'0 0.0
2016-Jun-23 18:32N 39°53' W 075°10'0 0.0
2016-Jun-23 17:32N 39°53' W 075°10'0 0.0
2016-Jun-23 16:26N 39°53' W 075°10'0 0.0
2016-Jun-23 15:32N 39°53' W 075°10'0 0.0
2016-Jun-23 14:32N 39°53' W 075°10'0 0.0
2016-Jun-23 13:32N 39°53' W 075°10'0 0.0
2016-Jun-23 12:32N 39°53' W 075°10'0 0.0
2016-Jun-23 11:32N 39°53' W 075°10'0 0.0
2016-Jun-23 10:32N 39°53' W 075°10'0 0.0
2016-Jun-23 09:32N 39°53' W 075°10'0 0.0
2016-Jun-23 08:32N 39°53' W 075°10'0 0.0
2016-Jun-23 07:33N 39°53' W 075°10'0 0.0
2016-Jun-23 05:32N 39°53' W 075°10'0 0.0
2016-Jun-23 04:32N 39°53' W 075°10'0 0.0
2016-Jun-23 03:29N 39°53' W 075°10'0 0.0
2016-Jun-23 02:32N 39°53' W 075°10'0 0.0
2016-Jun-23 01:32N 39°53' W 075°10'0 0.0
2016-Jun-23 00:32N 39°53' W 075°10'0 0.0
2016-Jun-22 23:32N 39°53' W 075°10'0 0.0
2016-Jun-22 22:29N 39°53' W 075°10'0 0.0
2016-Jun-22 21:32N 39°53' W 075°10'0 0.0
2016-Jun-22 20:32N 39°53' W 075°10'0 0.0
2016-Jun-22 19:32N 39°53' W 075°10'0 0.0
2016-Jun-22 18:32N 39°53' W 075°10'0 0.0
2016-Jun-22 17:32N 39°53' W 075°10'0 0.0
2016-Jun-22 16:32N 39°53' W 075°10'1 1.2
2016-Jun-22 15:34N 39°53' W 075°11'9 8.6
2016-Jun-22 14:34N 39°50' W 075°22'1110.6
2016-Jun-22 13:34N 39°42' W 075°31'1110.6
2016-Jun-22 12:34N 39°32' W 075°33'1110.8
2016-Jun-22 11:33N 39°22' W 075°27'1211.7
2016-Jun-22 10:34N 39°13' W 075°17'1212.3
2016-Jun-22 09:34N 39°02' W 075°10'1212.4
2016-Jun-22 08:33N 38°51' W 075°04'9 8.9
2016-Jun-22 07:30N 38°44' W 074°56'18 0.7
2016-Jun-21 07:30N 38°32' W 074°38'0 0.0
2016-Jun-21 06:24N 38°32' W 074°38'86 7.0
2016-Jun-20 18:11N 37°46' W 073°06'59 1.3
2016-Jun-18 20:33N 38°40' W 072°33'1 1.1
2016-Jun-18 19:32N 38°40' W 072°31'1 0.6
2016-Jun-18 18:33N 38°40' W 072°31'1 1.2
2016-Jun-18 17:33N 38°40' W 072°29'1 1.1
2016-Jun-18 16:33N 38°39' W 072°28'1 1.2
2016-Jun-18 15:33N 38°38' W 072°27'1 1.3
2016-Jun-18 14:33N 38°38' W 072°25'1 1.3
2016-Jun-18 13:33N 38°37' W 072°24'1 1.3
2016-Jun-18 12:33N 38°37' W 072°22'1 1.4
2016-Jun-18 11:33N 38°36' W 072°20'6 1.4
2016-Jun-18 07:30N 38°33' W 072°14'2 1.8
2016-Jun-18 06:33N 38°32' W 072°13'2 1.9
2016-Jun-18 05:33N 38°31' W 072°11'64 3.0
2016-Jun-17 08:26N 39°28' W 072°48'1111.8
2016-Jun-17 07:29N 39°37' W 072°57'1311.9
2016-Jun-17 06:26N 39°46' W 073°08'1011.4
2016-Jun-17 05:33N 39°55' W 073°14'1212.1
2016-Jun-17 04:33N 40°05' W 073°24'1212.3
2016-Jun-17 03:33N 40°14' W 073°34'1412.4
2016-Jun-17 02:26N 40°24' W 073°46'1011.9
2016-Jun-17 01:33N 40°30' W 073°57'9 9.2
2016-Jun-17 00:33N 40°38' W 074°03'0 0.0
2016-Jun-16 23:32N 40°38' W 074°03'0 0.0
2016-Jun-16 22:32N 40°38' W 074°03'0 0.1
2016-Jun-16 21:32N 40°38' W 074°03'0 0.0
2016-Jun-16 20:32N 40°38' W 074°03'0 0.0
2016-Jun-16 19:32N 40°38' W 074°03'0 0.2
2016-Jun-16 18:32N 40°38' W 074°03'4 3.8
2016-Jun-16 17:33N 40°35' W 074°02'10 9.6
2016-Jun-16 16:33N 40°28' W 073°53'1110.6
2016-Jun-16 15:33N 40°30' W 074°07'0 0.0
2016-Jun-14 19:33N 40°29' W 074°07'8 8.0
2016-Jun-14 18:34N 40°27' W 073°57'4 3.6
2016-Jun-14 17:33N 40°31' W 073°59'6 5.6
2016-Jun-14 16:33N 40°36' W 074°02'0 0.0
2016-Jun-14 15:30N 40°36' W 074°02'0 0.0
2016-Jun-14 14:33N 40°36' W 074°02'0 0.0
2016-Jun-14 13:30N 40°36' W 074°02'0 0.0
2016-Jun-14 12:30N 40°36' W 074°02'0 0.0
2016-Jun-14 11:33N 40°36' W 074°02'0 0.0
2016-Jun-14 10:33N 40°36' W 074°02'0 0.1
2016-Jun-14 09:33N 40°36' W 074°02'0 0.2
2016-Jun-14 08:33N 40°36' W 074°02'  

Dump ship's entire track history